Latest Coastal Weather Observations for Centre Island

IDD60701

Issued at 2:51 pm CST Wednesday 29 March 2017 (issued every 10 minutes, with the page automatically refreshed every 10 minutes)

About coastal observations | Map of coastal stations | Coastal observations for NT | Marine services | Other Formats
Station Details ID: 014703 Name: CENTRE ISLAND Lat: -15.74 Lon: 136.82 Height: 12.2 m
Data from the previous 72 hours. | See also: Recent months at Centre Island
Date/Time
CST
Temp
°C
Wind Pressure Rain since
9am
mm
Weather Cloud Vis
km
Sea
Height
m
Swell
Dir  Spd
kts
Gust
kts
hPa Trend Height
m
Period
s
Dir
29/02:30pm 38.2 W 5 7 1003.5 - 0.0 - - - - - - -
29/02:00pm 38.0 W 5 6 1003.8 - 0.0 - - - - - - -
29/01:30pm 36.3 S 5 5 1004.1 - 0.0 - - - - - - -
29/01:00pm 37.6 SSW 7 8 1004.6 - 0.0 - - - - - - -
29/12:30pm 37.2 WSW 7 9 1004.5 - 0.0 - - - - - - -
29/12:00pm 35.9 WSW 7 9 1004.8 - 0.0 - - - - - - -
29/11:30am 36.0 WSW 10 12 1005.2 - 0.0 - - - - - - -
29/11:00am 35.7 WSW 9 10 1005.7 - 0.0 - - - - - - -
29/10:30am 34.4 WSW 9 11 1006.0 - 0.0 - - - - - - -
29/10:00am 33.7 WSW 9 11 1005.9 - 0.0 - - - - - - -
29/09:30am 33.2 WSW 11 13 1006.3 - 0.0 - - - - - - -
29/09:00am 32.2 WSW 11 14 1006.2 - 0.0 - - - - - - -
29/08:30am 31.6 WSW 13 14 1006.1 - 0.0 - - - - - - -
29/08:00am 31.1 W 10 13 1005.9 - 0.0 - - - - - - -
29/07:30am 30.2 W 7 8 1005.7 - 0.0 - - - - - - -
29/07:00am 29.6 W 8 9 1005.3 - 0.0 - - - - - - -
29/06:30am 29.7 W 8 10 1005.1 - 0.0 - - - - - - -
29/06:00am 29.9 W 9 11 1004.8 - 0.0 - - - - - - -
29/05:30am 30.0 W 8 11 1004.6 - 0.0 - - - - - - -
29/05:00am 30.3 W 9 11 1004.4 - 0.0 - - - - - - -
29/04:30am 30.4 W 8 9 1004.4 - 0.0 - - - - - - -
29/04:00am 31.2 W 9 12 1004.2 - 0.0 - - - - - - -
29/03:30am 31.1 W 8 9 1004.1 - 0.0 - - - - - - -
29/03:00am 30.9 WNW 8 9 1004.0 - 0.0 - - - - - - -
29/02:30am 31.0 WNW 7 9 1004.0 - 0.0 - - - - - - -
29/02:00am 31.0 WNW 7 8 1004.2 - 0.0 - - - - - - -
29/01:30am 31.0 W 7 9 1004.5 - 0.0 - - - - - - -
29/01:00am 30.9 NW 7 8 1004.7 - 0.0 - - - - - - -
29/12:30am 31.1 NW 7 9 1004.8 - 0.0 - - - - - - -
29/12:00am 31.2 NW 6 8 1004.8 - 0.0 - - - - - - -
 
Date/Time
CST
Temp
°C
Wind Pressure Rain since
9am
mm
Weather Cloud Vis
km
Sea
Height
m
Swell
Dir  Spd
kts
Gust
kts
hPa Trend Height
m
Period
s
Dir
28/11:30pm 31.2 NW 6 7 1005.0 - 0.0 - - - - - - -
28/11:00pm 31.5 WNW 7 8 1005.2 - 0.0 - - - - - - -
28/10:30pm 31.9 NW 7 9 1005.4 - 0.0 - - - - - - -
28/10:00pm 31.9 NW 8 10 1005.5 - 0.0 - - - - - - -
28/09:30pm 31.9 NW 8 9 1005.4 - 0.0 - - - - - - -
28/09:00pm 32.1 NW 7 9 1005.1 - 0.0 - - - - - - -
28/08:30pm 32.6 NW 6 8 1004.9 - 0.0 - - - - - - -
28/08:00pm 32.7 NW 6 8 1004.5 - 0.0 - - - - - - -
28/07:30pm 33.2 NNW 6 7 1004.1 - 0.0 - - - - - - -
28/07:00pm 33.6 NNW 6 8 1003.8 - 0.0 - - - - - - -
28/06:30pm 34.0 NW 3 4 1003.4 - 0.0 - - - - - - -
28/06:00pm 35.9 W 3 4 1003.3 - 0.0 - - - - - - -
28/05:30pm 36.3 WSW 3 4 1003.3 - 0.0 - - - - - - -
28/05:00pm 37.8 WSW 4 5 1003.4 - 0.0 - - - - - - -
28/04:30pm 38.4 W 5 6 1003.2 - 0.0 - - - - - - -
28/04:00pm 38.3 W 5 6 1003.3 - 0.0 - - - - - - -
28/03:30pm 38.2 WSW 7 8 1003.4 - 0.0 - - - - - - -
28/03:00pm 37.7 W 6 6 1003.7 - 0.0 - - - - - - -
28/02:30pm 36.8 W 5 5 1004.0 - 0.0 - - - - - - -
28/02:00pm 38.4 WSW 6 8 1004.3 - 0.0 - - - - - - -
28/01:30pm 37.6 WSW 7 9 1004.7 - 0.0 - - - - - - -
28/01:00pm 37.4 SW 8 9 1005.3 - 0.0 - - - - - - -
28/12:30pm 36.8 WSW 8 11 1006.0 - 0.0 - - - - - - -
28/12:00pm 36.3 WSW 9 12 1006.5 - 0.0 - - - - - - -
28/11:30am 35.8 WSW 9 11 1006.9 - 0.0 - - - - - - -
28/11:00am 35.1 WSW 9 11 1007.2 - 0.0 - - - - - - -
28/10:30am 34.2 WSW 10 12 1007.3 - 0.0 - - - - - - -
28/10:00am 33.2 WSW 9 11 1007.7 - 0.0 - - - - - - -
28/09:30am 32.3 WSW 9 11 1007.9 - 0.0 - - - - - - -
28/09:00am 31.5 WSW 11 13 1008.2 - 0.0 - - - - - - -
28/08:30am 30.9 W 10 12 1008.2 - 0.0 - - - - - - -
28/08:00am 30.0 W 9 11 1008.1 - 0.0 - - - - - - -
28/07:30am 29.4 W 8 11 1007.6 - 0.0 - - - - - - -
28/07:00am 29.4 W 10 12 1007.2 - 0.0 - - - - - - -
28/06:30am 29.6 W 11 13 1006.9 - 0.0 - - - - - - -
28/06:00am 29.8 WNW 9 11 1006.4 - 0.0 - - - - - - -
28/05:30am 30.0 WNW 9 11 1006.1 - 0.0 - - - - - - -
28/05:00am 29.8 WNW 8 9 1006.0 - 0.0 - - - - - - -
28/04:30am 30.0 NW 9 11 1006.0 - 0.0 - - - - - - -
28/04:00am 29.8 NW 7 8 1006.1 - 0.0 - - - - - - -
28/03:30am 29.8 NW 7 8 1006.2 - 0.0 - - - - - - -
28/03:00am 30.0 NW 7 8 1006.2 - 0.0 - - - - - - -
28/02:30am 30.0 NW 5 7 1006.4 - 0.0 - - - - - - -
28/02:00am 30.2 NW 5 7 1006.5 - 0.0 - - - - - - -
28/01:30am 30.6 NNW 7 9 1006.6 - 0.0 - - - - - - -
28/01:00am 30.8 N 8 11 1006.6 - 0.0 - - - - - - -
28/12:30am 30.8 NNW 8 11 1007.0 - 0.0 - - - - - - -
28/12:00am 31.0 NNW 7 11 1007.2 - 0.0 - - - - - - -
 
Date/Time
CST
Temp
°C
Wind Pressure Rain since
9am
mm
Weather Cloud Vis
km
Sea
Height
m
Swell
Dir  Spd
kts
Gust
kts
hPa Trend Height
m
Period
s
Dir
27/11:30pm 31.0 N 8 11 1007.4 - 0.0 - - - - - - -
27/11:00pm 31.1 NNW 7 9 1007.6 - 0.0 - - - - - - -
27/10:30pm 31.3 NNW 8 11 1007.4 - 0.0 - - - - - - -
27/10:00pm 31.3 N 8 11 1007.3 - 0.0 - - - - - - -
27/09:30pm 31.3 NNW 7 9 1007.1 - 0.0 - - - - - - -
27/09:00pm 31.3 NNW 7 9 1006.8 - 0.0 - - - - - - -
27/08:30pm 31.4 NNW 7 11 1006.3 - 0.0 - - - - - - -
27/08:00pm 31.6 N 8 11 1006.2 - 0.0 - - - - - - -
27/07:30pm 31.7 N 9 11 1005.9 - 0.0 - - - - - - -
27/07:00pm 31.9 NNW 8 11 1005.7 - 0.0 - - - - - - -
27/06:30pm 32.6 N 8 11 1005.6 - 0.0 - - - - - - -
27/06:00pm 33.6 N 7 9 1005.3 - 0.0 - - - - - - -
27/05:30pm 34.5 N 7 9 1005.3 - 0.0 - - - - - - -
27/05:00pm 34.9 NNE 7 11 1005.1 - 0.0 - - - - - - -
27/04:30pm 35.2 NNE 8 9 1005.4 - 0.0 - - - - - - -
27/04:00pm 35.3 NE 5 8 1005.5 - 0.0 - - - - - - -
27/03:30pm 35.5 NNE 4 5 1005.8 - 0.0 - - - - - - -
27/03:00pm 35.6 SE 4 5 1006.1 - 0.0 - - - - - - -
27/02:30pm 35.7 SSE 3 5 1006.3 - 0.0 - - - - - - -
27/02:00pm 36.1 SSW 4 5 1006.5 - 0.0 - - - - - - -
27/01:30pm 34.8 SW 4 7 1007.0 - 0.0 - - - - - - -
27/01:00pm 34.0 SSE 4 5 1007.5 - 0.0 - - - - - - -
27/12:30pm 34.5 SSE 4 5 1008.0 - 0.0 - - - - - - -
27/12:00pm 33.9 SSW 5 6 1008.5 - 0.0 - - - - - - -
27/11:30am 33.3 WSW 7 9 1008.9 - 0.0 - - - - - - -
27/11:00am 33.3 WSW 7 9 1009.6 - 0.0 - - - - - - -
27/10:30am 33.2 WSW 6 8 1009.8 - 0.0 - - - - - - -
27/10:00am 32.0 WSW 7 9 1009.9 - 0.0 - - - - - - -
27/09:30am 31.5 WSW 9 10 1010.0 - 0.0 - - - - - - -
27/09:00am 30.9 WSW 9 11 1009.8 - 0.0 - - - - - - -
27/08:30am 30.2 WSW 10 12 1009.5 - 0.0 - - - - - - -
27/08:00am 30.1 WSW 7 9 1009.4 - 0.0 - - - - - - -
27/07:30am 29.6 WSW 8 10 1009.1 - 0.0 - - - - - - -
27/07:00am 29.4 WSW 8 9 1009.0 - 0.0 - - - - - - -
27/06:30am 29.2 W 7 8 1008.7 - 0.0 - - - - - - -
27/06:00am 29.1 WNW 7 8 1008.6 - 0.0 - - - - - - -
27/05:30am 29.0 WNW 5 6 1008.2 - 0.0 - - - - - - -
27/05:00am 28.7 WNW 5 6 1008.1 - 0.0 - - - - - - -
27/04:30am 28.8 NW 3 4 1008.1 - 0.0 - - - - - - -
27/04:00am 29.0 NNW 5 6 1007.9 - 0.0 - - - - - - -
27/03:30am 29.0 NNW 5 6 1008.0 - 0.0 - - - - - - -
27/03:00am 29.1 NNW 5 6 1008.2 - 0.0 - - - - - - -
27/02:30am 29.4 N 4 6 1008.4 - 0.0 - - - - - - -
27/02:00am 29.6 NNW 4 5 1008.8 - 0.0 - - - - - - -
27/01:30am 29.5 NNW 4 5 1008.9 - 0.0 - - - - - - -
27/01:00am 29.7 NNW 3 4 1009.0 - 0.0 - - - - - - -
27/12:30am 29.7 NNW 4 4 1009.2 - 0.0 - - - - - - -
27/12:00am 29.8 N 3 4 1009.3 - 0.0 - - - - - - -
 
Date/Time
CST
Temp
°C
Wind Pressure Rain since
9am
mm
Weather Cloud Vis
km
Sea
Height
m
Swell
Dir  Spd
kts
Gust
kts
hPa Trend Height
m
Period
s
Dir
26/11:30pm 29.8 NNW 4 5 1009.6 - 0.0 - - - - - - -
26/11:00pm 29.5 NNW 5 6 1009.8 - 0.0 - - - - - - -
26/10:30pm 29.5 NNW 4 5 1009.9 - 0.0 - - - - - - -
26/10:00pm 29.8 N 5 6 1009.7 - 0.0 - - - - - - -
26/09:30pm 30.0 NNW 6 7 1009.3 - 0.0 - - - - - - -
26/09:00pm 30.4 N 5 7 1009.0 - 0.0 - - - - - - -
26/08:30pm 30.5 NNE 6 8 1008.6 - 0.0 - - - - - - -
26/08:00pm 30.5 NNE 5 6 1008.2 - 0.0 - - - - - - -
26/07:30pm 30.6 NE 6 8 1008.0 - 0.0 - - - - - - -
26/07:00pm 30.6 ENE 6 8 1007.7 - 0.0 - - - - - - -
26/06:30pm 30.5 ENE 5 8 1007.1 - 0.0 - - - - - - -
26/06:00pm 30.9 NE 4 5 1006.9 - 0.0 - - - - - - -
26/05:30pm 31.4 E 5 7 1006.6 - 0.0 - - - - - - -
26/05:00pm 31.6 E 8 9 1006.4 - 0.0 - - - - - - -
26/04:30pm 31.9 ESE 6 10 1006.2 - 0.0 - - - - - - -
26/04:00pm 32.3 SE 5 6 1006.3 - 0.0 - - - - - - -
26/03:30pm 32.4 SSE 4 5 1006.0 - 0.0 - - - - - - -
26/03:00pm 33.0 SSE 4 5 1006.5 - 0.0 - - - - - - -

Other Formats:

Comma delimited format used in spreadsheet applications
http://www.bom.gov.au/fwo/IDD60701/IDD60701.94248.axf

JavaScript Object Notation format (JSON) in row-major order
http://www.bom.gov.au/fwo/IDD60701/IDD60701.94248.json